Time;durP1;ratioP1;P1;durP2;ratioP2;P2;SDS_P1;SDS_P2;PMS_P1;PMS_P2;Temp;Humidity;BMP_temperature;BMP_pressure;BME280_temperature;BME280_humidity;BME280_pressure;Samples;Min_cycle;Max_cycle;Signal;HPM_P1;HPM_P2
2022/01/12 00:00:51;;;;;;;7.55;6.65;;;13.50;63.70;;;;;;5031042;28;20061;-71
2022/01/12 00:03:18;;;;;;;9.18;6.85;;;13.70;54.80;;;;;;5030608;28;20075;-71
2022/01/12 00:05:45;;;;;;;8.52;6.43;;;13.50;63.40;;;;;;5030622;28;20476;-71
2022/01/12 00:08:11;;;;;;;9.38;7.30;;;13.40;63.40;;;;;;5030760;28;20053;-71
2022/01/12 00:10:39;;;;;;;8.68;6.60;;;13.60;55.10;;;;;;5039680;28;20041;-71
2022/01/12 00:13:06;;;;;;;8.27;7.18;;;13.70;63.80;;;;;;5012450;28;20446;-71
2022/01/12 00:15:34;;;;;;;8.52;6.80;;;13.60;58.90;;;;;;5010632;28;20581;-71
2022/01/12 00:18:00;;;;;;;9.30;6.68;;;13.50;55.90;;;;;;5012280;28;20137;-71
2022/01/12 00:20:27;;;;;;;10.38;6.80;;;13.50;63.60;;;;;;5010769;28;20137;-71
2022/01/12 00:22:54;;;;;;;7.63;6.75;;;13.40;63.80;;;;;;5012255;28;20129;-71
2022/01/12 00:25:28;;;;;;;9.57;6.40;;;13.50;55.90;;;;;;5031332;28;20061;-71
2022/01/12 00:33:25;;;;;;;8.07;6.50;;;;;;;;;;5050355;28;20107;-71
2022/01/12 00:35:53;;;;;;;8.35;6.75;;;13.20;63.50;;;;;;5051306;28;20056;-71
2022/01/12 00:38:21;;;;;;;8.82;7.10;;;13.40;63.70;;;;;;5050468;28;20137;-71
2022/01/12 00:40:50;;;;;;;8.13;6.43;;;13.10;63.20;;;;;;5034756;28;20132;-71
2022/01/12 00:43:17;;;;;;;7.18;6.07;;;13.10;63.40;;;;;;5050092;28;20140;-71
2022/01/12 00:45:46;;;;;;;7.80;6.57;;;13.30;59.20;;;;;;5050168;28;20406;-71
2022/01/12 00:48:12;;;;;;;9.15;6.78;;;12.90;63.50;;;;;;5050241;28;20110;-71
2022/01/12 00:50:40;;;;;;;8.23;6.60;;;;;;;;;;5051308;28;20136;-71
2022/01/12 00:53:06;;;;;;;8.95;6.47;;;13.50;63.70;;;;;;5048731;28;20057;-71
2022/01/12 00:55:33;;;;;;;9.27;6.60;;;;;;;;;;5030287;28;20456;-71
2022/01/12 00:58:00;;;;;;;7.70;5.90;;;13.40;63.90;;;;;;5030384;28;20045;-71
2022/01/12 01:00:27;;;;;;;9.18;6.65;;;13.40;63.70;;;;;;5031385;28;20053;-71
2022/01/12 01:02:55;;;;;;;9.57;6.93;;;13.30;63.70;;;;;;5030269;28;20056;-71
2022/01/12 01:05:23;;;;;;;8.13;6.13;;;;;;;;;;5031161;28;20132;-71
2022/01/12 01:07:50;;;;;;;8.63;6.20;;;13.30;54.70;;;;;;5034576;28;20073;-71
2022/01/12 01:10:25;;;;;;;9.27;6.45;;;13.50;63.90;;;;;;5053076;28;20421;-71
2022/01/12 01:12:52;;;;;;;8.85;6.65;;;13.30;62.50;;;;;;5054687;28;20053;-71
2022/01/12 01:15:27;;;;;;;8.57;6.32;;;13.40;63.80;;;;;;5054765;28;20486;-71
2022/01/12 01:26:07;;;;;;;8.00;6.07;;;13.00;63.80;;;;;;5052756;28;20049;-71
2022/01/12 01:28:34;;;;;;;8.15;6.00;;;;;;;;;;5053320;28;20144;-71
2022/01/12 01:31:02;;;;;;;8.15;6.38;;;14.10;64.10;;;;;;5053461;28;20060;-71
2022/01/12 01:33:32;;;;;;;8.85;6.40;;;13.40;59.60;;;;;;5053030;28;20055;-71
2022/01/12 01:35:59;;;;;;;9.63;6.88;;;13.40;63.60;;;;;;5054346;28;20049;-71
2022/01/12 01:38:25;;;;;;;8.75;6.22;;;13.50;63.60;;;;;;5054222;28;20151;-71
2022/01/12 01:40:53;;;;;;;9.15;6.63;;;;;;;;;;5051814;28;20143;-71
2022/01/12 01:43:26;;;;;;;10.52;6.90;;;13.50;63.70;;;;;;5038127;28;20122;-71
2022/01/12 01:54:08;;;;;;;9.43;6.13;;;13.50;63.70;;;;;;5051330;28;20040;-71
2022/01/12 01:56:35;;;;;;;8.27;6.13;;;;;;;;;;5052556;28;20369;-71
2022/01/12 01:59:01;;;;;;;8.65;6.35;;;13.60;63.40;;;;;;5052987;28;20059;-71
2022/01/12 02:01:28;;;;;;;10.85;6.18;;;13.80;63.50;;;;;;5053821;28;20139;-71
2022/01/12 02:04:00;;;;;;;8.35;5.75;;;13.60;63.30;;;;;;5052870;28;20486;-71
2022/01/12 02:06:27;;;;;;;10.13;6.38;;;;;;;;;;5052521;28;20060;-71
2022/01/12 02:08:54;;;;;;;9.68;6.10;;;14.50;63.70;;;;;;5032882;28;20060;-71
2022/01/12 02:11:25;;;;;;;9.50;6.53;;;14.30;63.40;;;;;;5032619;28;20136;-71
2022/01/12 02:13:52;;;;;;;8.90;6.03;;;13.60;63.30;;;;;;5032537;28;20064;-71
2022/01/12 02:16:23;;;;;;;8.13;6.18;;;13.60;63.10;;;;;;5032601;28;20053;-71
2022/01/12 02:19:09;;;;;;;9.95;6.40;;;13.40;62.70;;;;;;5032630;28;20557;-71
2022/01/12 02:35:35;;;;;;;10.00;6.53;;;13.80;63.30;;;;;;5043104;28;20045;-71
2022/01/12 02:40:54;;;;;;;9.68;6.78;;;13.90;62.00;;;;;;5014111;28;20085;-71
2022/01/12 02:43:38;;;;;;;9.05;5.85;;;13.70;63.00;;;;;;5052091;28;20053;-72
2022/01/12 02:51:36;;;;;;;8.43;5.88;;;13.70;63.10;;;;;;5050263;28;20045;-72
2022/01/12 02:54:04;;;;;;;9.70;6.60;;;13.80;63.10;;;;;;5051593;28;20063;-71
2022/01/12 02:56:32;;;;;;;8.38;6.00;;;13.80;54.00;;;;;;5051547;28;20114;-71
2022/01/12 02:58:59;;;;;;;8.88;6.25;;;13.80;54.00;;;;;;5051920;28;20057;-71
2022/01/12 03:01:57;;;;;;;10.48;6.53;;;14.00;62.90;;;;;;5051655;28;20482;-72
2022/01/12 03:04:24;;;;;;;9.95;6.68;;;13.70;63.00;;;;;;5051534;28;20493;-71
2022/01/12 03:06:52;;;;;;;9.05;6.18;;;;;;;;;;5051487;28;20135;-70
2022/01/12 03:09:20;;;;;;;8.65;6.03;;;13.80;53.90;;;;;;5049659;28;20064;-70
2022/01/12 03:11:47;;;;;;;9.68;6.35;;;;;;;;;;5051377;28;20596;-70
2022/01/12 03:14:14;;;;;;;9.73;6.13;;;13.90;62.70;;;;;;5052363;28;20446;-72
2022/01/12 03:16:42;;;;;;;10.38;6.60;;;13.80;62.80;;;;;;5051222;28;20049;-71
2022/01/12 03:19:08;;;;;;;9.82;6.38;;;13.40;62.40;;;;;;5051578;28;20135;-72
2022/01/12 03:21:35;;;;;;;9.85;6.55;;;13.90;56.90;;;;;;5051177;28;20136;-71
2022/01/12 03:24:03;;;;;;;8.50;5.93;;;13.40;62.30;;;;;;5051248;28;20144;-71
2022/01/12 03:26:33;;;;;;;9.90;6.78;;;14.00;59.70;;;;;;5039930;28;20091;-71
2022/01/12 03:29:00;;;;;;;10.90;7.00;;;13.90;62.80;;;;;;5031090;28;20050;-71
2022/01/12 03:31:29;;;;;;;9.25;6.13;;;13.80;62.50;;;;;;5030670;28;20053;-72
2022/01/12 03:33:59;;;;;;;9.88;6.45;;;14.00;61.50;;;;;;5031332;28;20045;-72
2022/01/12 03:36:41;;;;;;;9.70;6.30;;;14.50;59.00;;;;;;5032048;28;20084;-71
2022/01/12 03:39:10;;;;;;;9.90;6.45;;;13.90;53.80;;;;;;5032204;28;20059;-70
2022/01/12 03:41:38;;;;;;;10.18;6.70;;;13.80;62.50;;;;;;5031124;28;20144;-72
2022/01/12 03:44:06;;;;;;;9.73;6.32;;;14.00;62.70;;;;;;5049899;28;20132;-72
2022/01/12 03:46:34;;;;;;;10.88;7.07;;;13.90;62.70;;;;;;5050766;28;20052;-71
2022/01/12 03:49:00;;;;;;;9.25;6.20;;;13.90;62.60;;;;;;5050634;28;20045;-72
2022/01/12 03:51:27;;;;;;;9.25;6.30;;;13.90;62.80;;;;;;5051020;28;20147;-71
2022/01/12 03:53:54;;;;;;;9.27;6.28;;;;;;;;;;5050826;28;20063;-71
2022/01/12 03:56:21;;;;;;;8.75;5.80;;;13.50;62.40;;;;;;5050650;28;20067;-72
2022/01/12 03:58:49;;;;;;;9.40;6.35;;;13.90;53.70;;;;;;5050189;28;20132;-72
2022/01/12 04:01:16;;;;;;;8.35;6.03;;;;;;;;;;5051810;28;20169;-72
2022/01/12 04:03:47;;;;;;;10.00;7.20;;;13.40;62.20;;;;;;5050716;28;20075;-71
2022/01/12 04:08:59;;;;;;;10.23;6.90;;;14.00;59.60;;;;;;5050431;28;20128;-71
2022/01/12 04:11:25;;;;;;;8.70;6.05;;;13.50;62.30;;;;;;5050792;28;20569;-72
2022/01/12 04:13:53;;;;;;;10.00;6.72;;;14.00;62.60;;;;;;5050721;28;20055;-72
2022/01/12 04:16:20;;;;;;;9.85;6.80;;;14.40;62.70;;;;;;5046640;28;20132;-72
2022/01/12 04:18:47;;;;;;;9.55;6.57;;;14.20;60.00;;;;;;5030703;28;20055;-72
2022/01/12 04:21:13;;;;;;;9.65;7.20;;;13.90;62.60;;;;;;5031457;28;20144;-71
2022/01/12 04:23:41;;;;;;;9.88;6.70;;;14.00;62.60;;;;;;5030812;28;20662;-72
2022/01/12 04:26:10;;;;;;;9.85;6.82;;;14.00;62.60;;;;;;5030572;28;20057;-71
2022/01/12 04:28:38;;;;;;;8.63;5.95;;;13.80;61.90;;;;;;5030567;28;20457;-71
2022/01/12 04:31:06;;;;;;;9.13;6.28;;;14.00;53.60;;;;;;5032012;28;20152;-72
2022/01/12 04:33:34;;;;;;;9.52;6.60;;;14.00;62.30;;;;;;5041571;28;20128;-71
2022/01/12 04:36:00;;;;;;;9.00;6.38;;;13.90;62.50;;;;;;5050398;28;20052;-71
2022/01/12 04:38:30;;;;;;;8.88;6.28;;;14.10;56.40;;;;;;5050414;28;20133;-72
2022/01/12 04:40:57;;;;;;;8.98;6.32;;;13.80;62.20;;;;;;5050429;28;20053;-72
2022/01/12 04:43:25;;;;;;;9.80;6.82;;;14.10;61.20;;;;;;5052972;28;20139;-71
2022/01/12 04:48:37;;;;;;;8.52;5.82;;;14.00;62.40;;;;;;5040870;28;20051;-72
2022/01/12 04:51:04;;;;;;;9.10;6.38;;;14.00;62.50;;;;;;5051951;28;20135;-71
2022/01/12 04:53:31;;;;;;;8.40;6.10;;;14.20;62.60;;;;;;5055152;28;20075;-72
2022/01/12 04:55:58;;;;;;;9.70;6.03;;;14.10;58.20;;;;;;5053942;28;20080;-72
2022/01/12 04:58:25;;;;;;;8.82;6.25;;;14.20;62.60;;;;;;5054209;28;20049;-73
2022/01/12 05:00:53;;;;;;;7.78;5.95;;;;;;;;;;5053794;28;20135;-72
2022/01/12 05:06:38;;;;;;;9.15;6.30;;;14.00;62.60;;;;;;5051964;28;20490;-73
2022/01/12 05:09:09;;;;;;;7.55;5.53;;;14.00;62.50;;;;;;5054842;28;20478;-73
2022/01/12 05:14:22;;;;;;;7.37;5.60;;;13.70;57.50;;;;;;5054051;28;20049;-72
2022/01/12 05:16:49;;;;;;;6.72;4.80;;;14.20;62.40;;;;;;5053564;28;20053;-73
2022/01/12 05:19:16;;;;;;;8.77;6.20;;;;;;;;;;5053635;28;20143;-72
2022/01/12 05:21:44;;;;;;;6.68;5.38;;;14.20;62.60;;;;;;5053326;28;20091;-72
2022/01/12 05:24:11;;;;;;;7.90;5.72;;;14.10;62.30;;;;;;5053037;28;20127;-72
2022/01/12 05:26:38;;;;;;;6.75;5.07;;;14.00;62.20;;;;;;5053333;28;20140;-71
2022/01/12 05:29:05;;;;;;;7.05;5.45;;;14.10;61.10;;;;;;5054155;28;20049;-72
2022/01/12 05:31:33;;;;;;;7.63;5.40;;;14.00;62.20;;;;;;5053447;28;20131;-72
2022/01/12 05:34:00;;;;;;;7.30;5.70;;;14.30;62.50;;;;;;5053358;28;20106;-72
2022/01/12 05:36:30;;;;;;;8.05;5.78;;;14.00;62.10;;;;;;5053102;28;20052;-72
2022/01/12 05:38:58;;;;;;;7.43;5.47;;;14.10;57.20;;;;;;5054320;28;20052;-72
2022/01/12 05:41:25;;;;;;;6.55;5.13;;;13.60;56.40;;;;;;5052530;28;20049;-72
2022/01/12 05:43:51;;;;;;;7.05;5.30;;;14.20;62.20;;;;;;5053162;28;20394;-72
2022/01/12 05:46:23;;;;;;;7.20;5.10;;;14.10;62.20;;;;;;5053055;28;20127;-72
2022/01/12 05:51:34;;;;;;;6.45;5.03;;;14.20;62.20;;;;;;5053938;28;20448;-72
2022/01/12 05:54:02;;;;;;;5.60;4.70;;;14.00;62.10;;;;;;5052194;28;20131;-71
2022/01/12 05:56:29;;;;;;;6.93;5.07;;;14.00;62.30;;;;;;5052740;28;20144;-71
2022/01/12 05:58:55;;;;;;;6.32;4.95;;;13.90;61.90;;;;;;5050666;28;20124;-72
2022/01/12 06:01:22;;;;;;;5.97;4.65;;;14.20;62.10;;;;;;5053918;28;20135;-72
2022/01/12 06:03:49;;;;;;;6.60;4.80;;;;;;;;;;5054145;28;20495;-72
2022/01/12 06:06:16;;;;;;;6.70;5.03;;;14.20;62.30;;;;;;5052413;28;20052;-72
2022/01/12 06:08:43;;;;;;;5.35;4.43;;;;;;;;;;5052716;28;20055;-72
2022/01/12 06:11:11;;;;;;;5.35;4.15;;;14.00;53.50;;;;;;5053703;28;20049;-73
2022/01/12 06:13:38;;;;;;;5.45;4.43;;;14.30;59.20;;;;;;5052691;28;20139;-72
2022/01/12 06:16:05;;;;;;;5.35;4.30;;;14.10;58.10;;;;;;5048542;28;20057;-72
2022/01/12 06:18:32;;;;;;;5.25;4.20;;;;;;;;;;5050616;28;20129;-72
2022/01/12 06:20:59;;;;;;;6.15;4.50;;;;;;;;;;5050441;28;20061;-72
2022/01/12 06:23:26;;;;;;;5.20;4.22;;;;;;;;;;5050215;28;20512;-72
2022/01/12 06:25:53;;;;;;;4.82;4.00;;;;;;;;;;5050157;28;20501;-72
2022/01/12 06:28:35;;;;;;;5.32;4.03;;;14.20;56.00;;;;;;5050626;28;20132;-72
2022/01/12 06:31:12;;;;;;;5.63;4.13;;;;;;;;;;5052146;28;20052;-72
2022/01/12 06:33:40;;;;;;;4.80;3.95;;;14.20;62.50;;;;;;5050567;28;20513;-73
2022/01/12 06:36:07;;;;;;;4.85;3.75;;;14.20;62.10;;;;;;5051982;28;20053;-73
2022/01/12 06:38:33;;;;;;;5.13;3.97;;;14.30;62.20;;;;;;5053132;28;20132;-73
2022/01/12 06:41:00;;;;;;;4.80;3.78;;;;;;;;;;5052143;28;20140;-72
2022/01/12 06:43:29;;;;;;;4.63;3.88;;;14.00;62.30;;;;;;5051951;28;20136;-72
2022/01/12 06:45:56;;;;;;;5.57;4.22;;;13.90;62.00;;;;;;5052038;28;20058;-72
2022/01/12 06:48:23;;;;;;;4.60;3.80;;;13.50;61.70;;;;;;5049930;28;20608;-72
2022/01/12 06:50:50;;;;;;;4.38;3.75;;;14.20;62.20;;;;;;5051366;28;20052;-72
2022/01/12 06:53:17;;;;;;;5.55;3.97;;;;;;;;;;5051972;28;20144;-72
2022/01/12 06:55:44;;;;;;;3.83;3.42;;;14.10;61.90;;;;;;5051741;28;20061;-72
2022/01/12 06:58:11;;;;;;;3.92;3.45;;;14.10;56.90;;;;;;5051739;28;20132;-72
2022/01/12 07:00:39;;;;;;;4.75;3.58;;;14.10;61.90;;;;;;5051746;28;20057;-72
2022/01/12 07:03:06;;;;;;;4.03;3.45;;;14.10;62.10;;;;;;5051299;28;20132;-72
2022/01/12 07:05:33;;;;;;;4.05;3.35;;;;;;;;;;5049310;28;20054;-72
2022/01/12 07:08:00;;;;;;;4.93;4.07;;;14.10;62.10;;;;;;5050970;28;20136;-72
2022/01/12 07:10:26;;;;;;;4.15;3.30;;;13.90;62.00;;;;;;5051565;28;20080;-72
2022/01/12 07:12:53;;;;;;;4.50;3.20;;;14.00;55.00;;;;;;5052524;28;20109;-72
2022/01/12 07:15:20;;;;;;;4.25;3.53;;;14.30;62.30;;;;;;5051466;28;20241;-72
2022/01/12 07:17:48;;;;;;;4.35;3.70;;;14.20;62.00;;;;;;5051347;28;20061;-72
2022/01/12 07:20:16;;;;;;;4.18;3.53;;;;;;;;;;5051200;28;20052;-72
2022/01/12 07:22:43;;;;;;;3.95;3.10;;;14.30;62.10;;;;;;5049408;28;20050;-72
2022/01/12 07:25:10;;;;;;;3.80;3.28;;;14.40;55.00;;;;;;5052289;28;20127;-72
2022/01/12 07:27:36;;;;;;;3.80;3.10;;;14.30;62.00;;;;;;5051084;28;20052;-72
2022/01/12 07:30:03;;;;;;;3.60;3.05;;;14.20;62.10;;;;;;5050727;28;20152;-72
2022/01/12 07:32:30;;;;;;;3.95;3.10;;;14.20;62.10;;;;;;5052132;28;20135;-72
2022/01/12 07:34:58;;;;;;;4.30;3.58;;;14.20;62.20;;;;;;5051129;28;20060;-72
2022/01/12 07:37:25;;;;;;;4.00;3.25;;;13.80;61.70;;;;;;5050950;28;20061;-72
2022/01/12 07:39:52;;;;;;;3.38;3.05;;;;;;;;;;5049176;28;20128;-72
2022/01/12 07:42:19;;;;;;;3.70;3.17;;;14.20;62.10;;;;;;5051194;28;20059;-72
2022/01/12 07:44:45;;;;;;;3.88;3.20;;;14.10;62.10;;;;;;5052047;28;20075;-72
2022/01/12 07:47:12;;;;;;;3.97;3.05;;;14.20;56.80;;;;;;5052021;28;20162;-72
2022/01/12 07:49:39;;;;;;;3.55;3.20;;;14.30;62.20;;;;;;5050574;28;20051;-72
2022/01/12 07:52:07;;;;;;;3.78;3.08;;;14.20;61.90;;;;;;5051911;28;20136;-71
2022/01/12 07:54:34;;;;;;;3.20;2.80;;;;;;;;;;5050714;28;20143;-71
2022/01/12 07:57:01;;;;;;;3.50;3.00;;;14.10;62.00;;;;;;5048869;28;20065;-71
2022/01/12 07:59:28;;;;;;;3.40;3.10;;;14.00;61.80;;;;;;5052425;28;20402;-73
2022/01/12 08:01:55;;;;;;;4.07;3.40;;;;;;;;;;5030527;28;20505;-74
2022/01/12 08:04:22;;;;;;;3.70;3.05;;;14.20;61.90;;;;;;5030808;28;20164;-74
2022/01/12 08:06:49;;;;;;;3.20;2.72;;;;;;;;;;5030904;28;20136;-74
2022/01/12 08:09:17;;;;;;;4.53;3.15;;;14.90;62.60;;;;;;5030694;28;20140;-74
2022/01/12 08:11:43;;;;;;;3.50;2.80;;;14.20;62.10;;;;;;5030859;28;20067;-74
2022/01/12 08:14:10;;;;;;;3.28;2.67;;;14.40;62.70;;;;;;5031963;28;20132;-74
2022/01/12 08:16:37;;;;;;;4.28;2.88;;;14.40;58.40;;;;;;5030593;28;20136;-73
2022/01/12 08:19:04;;;;;;;7.40;2.88;;;14.30;62.30;;;;;;5034259;28;20124;-74
2022/01/12 08:21:31;;;;;;;5.03;2.90;;;;;;;;;;5033963;28;22204;-73
2022/01/12 08:23:58;;;;;;;4.30;2.97;;;13.80;62.00;;;;;;5034340;28;20469;-74
2022/01/12 08:26:26;;;;;;;4.25;2.67;;;14.50;62.40;;;;;;5034315;28;20088;-74
2022/01/12 08:28:53;;;;;;;3.05;2.65;;;;;;;;;;5035243;28;20048;-72
2022/01/12 08:31:21;;;;;;;3.20;2.60;;;14.20;62.20;;;;;;5035897;28;20061;-72
2022/01/12 08:33:48;;;;;;;2.97;2.67;;;14.80;62.30;;;;;;5034028;28;20057;-72
2022/01/12 08:36:15;;;;;;;3.50;2.53;;;;;;;;;;5015412;28;20136;-72
2022/01/12 08:38:42;;;;;;;3.58;2.55;;;14.00;62.10;;;;;;5015748;28;20054;-72
2022/01/12 08:41:09;;;;;;;2.95;2.35;;;14.50;62.10;;;;;;5014779;28;20140;-72
2022/01/12 08:43:37;;;;;;;2.90;2.42;;;14.20;55.70;;;;;;5014533;28;20144;-72
2022/01/12 08:46:03;;;;;;;3.83;2.80;;;14.50;58.60;;;;;;5014401;28;20085;-72
2022/01/12 08:48:30;;;;;;;3.45;2.63;;;14.40;62.00;;;;;;5029168;28;20140;-72
2022/01/12 08:50:57;;;;;;;2.70;2.25;;;14.30;61.90;;;;;;5034355;28;20144;-72
2022/01/12 08:53:24;;;;;;;2.53;2.20;;;;;;;;;;5033803;28;20136;-72
2022/01/12 08:55:51;;;;;;;3.15;2.40;;;14.20;61.90;;;;;;5033719;28;20136;-72
2022/01/12 08:58:18;;;;;;;3.75;2.45;;;;;;;;;;5034260;28;20140;-72
2022/01/12 09:00:46;;;;;;;3.25;2.50;;;14.50;62.00;;;;;;5034106;28;20049;-71
2022/01/12 09:03:12;;;;;;;3.22;2.55;;;14.50;62.30;;;;;;5034915;28;20140;-73
2022/01/12 09:05:39;;;;;;;2.30;2.10;;;14.30;61.90;;;;;;5034618;28;20459;-74
2022/01/12 09:08:06;;;;;;;3.80;2.47;;;;;;;;;;5033824;28;20133;-73
2022/01/12 09:10:34;;;;;;;2.58;2.28;;;;;;;;;;5031588;28;20049;-73
2022/01/12 09:13:00;;;;;;;3.28;2.50;;;14.50;59.50;;;;;;5032852;28;20056;-74
2022/01/12 09:15:27;;;;;;;2.80;2.25;;;14.60;62.20;;;;;;5032747;28;20512;-74
2022/01/12 09:17:56;;;;;;;2.58;2.25;;;14.40;53.30;;;;;;5033263;28;20570;-73
2022/01/12 09:20:24;;;;;;;2.90;2.40;;;14.20;61.80;;;;;;5033102;28;20084;-74
2022/01/12 09:22:50;;;;;;;2.88;2.28;;;14.50;57.30;;;;;;5034206;28;20064;-74
2022/01/12 09:25:17;;;;;;;3.28;2.35;;;14.50;62.20;;;;;;5032987;28;20115;-73
2022/01/12 09:27:44;;;;;;;2.60;1.90;;;;;;;;;;5032217;28;20049;-72
2022/01/12 09:30:12;;;;;;;2.58;2.20;;;14.60;61.90;;;;;;5031498;28;20053;-73
2022/01/12 09:32:39;;;;;;;3.28;2.13;;;14.00;60.50;;;;;;5033056;28;20140;-74
2022/01/12 09:35:09;;;;;;;3.42;2.25;;;14.10;61.60;;;;;;5035962;28;20081;-73
2022/01/12 09:37:35;;;;;;;3.08;2.22;;;14.40;62.00;;;;;;5031820;28;20140;-73
2022/01/12 09:40:02;;;;;;;2.70;2.00;;;14.50;62.00;;;;;;5033677;28;20136;-72
2022/01/12 09:42:29;;;;;;;4.15;2.10;;;14.50;56.90;;;;;;5034335;28;20088;-72
2022/01/12 09:44:56;;;;;;;2.95;2.10;;;14.60;62.10;;;;;;5033245;28;20132;-72
2022/01/12 09:47:22;;;;;;;2.30;1.90;;;13.80;61.40;;;;;;5032849;28;20171;-72
2022/01/12 09:49:49;;;;;;;2.17;1.83;;;;;;;;;;5032983;28;20136;-72
2022/01/12 09:52:17;;;;;;;2.33;1.80;;;14.20;61.90;;;;;;5033251;28;20140;-72
2022/01/12 09:54:45;;;;;;;1.90;1.60;;;13.90;61.40;;;;;;5045034;28;20059;-72
2022/01/12 09:57:11;;;;;;;2.05;1.70;;;14.20;56.50;;;;;;5052867;28;20110;-72
2022/01/12 09:59:38;;;;;;;2.03;1.75;;;14.60;61.70;;;;;;5053024;28;20131;-72
2022/01/12 10:02:05;;;;;;;2.17;1.70;;;14.70;61.90;;;;;;5052768;28;20060;-72
2022/01/12 10:04:32;;;;;;;1.90;1.70;;;14.80;61.40;;;;;;5036479;28;20479;-73
2022/01/12 10:06:59;;;;;;;2.80;1.77;;;14.30;61.80;;;;;;5029600;28;20049;-72
2022/01/12 10:09:33;;;;;;;1.90;1.60;;;14.70;61.80;;;;;;5031686;28;20045;-72
2022/01/12 10:12:01;;;;;;;1.70;1.50;;;14.60;53.10;;;;;;5031876;28;20049;-72
2022/01/12 10:14:38;;;;;;;1.70;1.52;;;14.80;62.00;;;;;;5032952;28;20057;-69
2022/01/12 10:17:05;;;;;;;2.10;1.83;;;14.00;61.50;;;;;;5031301;28;20053;-71
2022/01/12 10:19:32;;;;;;;2.60;1.60;;;14.60;53.10;;;;;;5031934;28;20061;-71
2022/01/12 10:22:01;;;;;;;1.67;1.42;;;14.60;61.70;;;;;;5031190;28;20132;-71
2022/01/12 10:24:29;;;;;;;2.10;1.80;;;14.10;61.40;;;;;;5031914;28;20144;-71
2022/01/12 10:26:56;;;;;;;1.95;1.70;;;15.00;61.90;;;;;;5031852;28;20136;-71
2022/01/12 10:29:24;;;;;;;1.65;1.40;;;14.40;58.30;;;;;;5031574;28;20064;-71
2022/01/12 10:31:53;;;;;;;1.88;1.58;;;14.70;56.20;;;;;;5031097;28;20136;-71
2022/01/12 10:34:22;;;;;;;1.50;1.30;;;14.70;53.10;;;;;;5031277;28;20057;-73
2022/01/12 10:36:48;;;;;;;1.75;1.45;;;15.40;56.70;;;;;;5031414;28;20053;-72
2022/01/12 10:39:16;;;;;;;1.52;1.40;;;14.10;61.20;;;;;;5031432;28;20136;-72
2022/01/12 10:41:53;;;;;;;1.75;1.55;;;14.90;53.20;;;;;;5030814;28;20056;-73
2022/01/12 10:44:20;;;;;;;1.70;1.40;;;14.30;61.50;;;;;;5031358;28;20392;-71
2022/01/12 10:46:47;;;;;;;2.30;1.65;;;14.30;61.80;;;;;;5029783;28;20053;-72
2022/01/12 10:49:18;;;;;;;1.95;1.40;;;14.60;62.00;;;;;;5032187;28;20565;-70
2022/01/12 10:51:54;;;;;;;3.80;1.50;;;15.50;62.30;;;;;;5027911;28;20053;-69
2022/01/12 10:54:21;;;;;;;2.70;1.40;;;;;;;;;;5028704;28;20075;-70
2022/01/12 10:56:49;;;;;;;2.97;1.75;;;15.40;62.50;;;;;;5029170;28;20101;-71
2022/01/12 10:59:17;;;;;;;2.58;1.50;;;14.90;62.10;;;;;;5030276;28;20164;-74
2022/01/12 11:01:44;;;;;;;1.67;1.27;;;;;;;;;;5029865;28;20076;-73
2022/01/12 11:04:11;;;;;;;1.45;1.30;;;14.10;61.90;;;;;;5027907;28;20055;-73
2022/01/12 11:06:37;;;;;;;2.00;1.25;;;14.40;59.10;;;;;;5028926;28;20132;-73
2022/01/12 11:09:04;;;;;;;2.03;1.30;;;14.40;62.00;;;;;;5027716;28;20407;-73
2022/01/12 11:11:31;;;;;;;4.80;1.40;;;;;;;;;;5029153;28;20095;-73
2022/01/12 11:13:59;;;;;;;2.22;1.30;;;14.00;61.50;;;;;;5028318;28;20124;-73
2022/01/12 11:16:27;;;;;;;4.03;1.50;;;14.80;62.20;;;;;;5029822;28;20136;-73
2022/01/12 11:18:54;;;;;;;2.17;1.35;;;14.80;62.20;;;;;;5028385;28;20049;-73
2022/01/12 11:21:25;;;;;;;1.80;1.40;;;14.90;53.40;;;;;;5028461;28;20471;-72
2022/01/12 11:23:52;;;;;;;3.42;1.50;;;14.90;62.00;;;;;;5030314;28;20049;-73
2022/01/12 11:26:20;;;;;;;1.88;1.23;;;15.00;62.40;;;;;;5030414;28;20057;-73
2022/01/12 11:28:48;;;;;;;1.92;1.40;;;14.20;61.80;;;;;;5030069;28;20056;-73
2022/01/12 11:31:22;;;;;;;3.45;1.50;;;15.00;54.00;;;;;;5029904;28;20057;-75
2022/01/12 11:33:49;;;;;;;2.85;1.48;;;15.20;62.80;;;;;;5030255;28;20572;-75
2022/01/12 11:36:20;;;;;;;4.05;1.60;;;15.00;54.10;;;;;;5030482;28;20049;-73
2022/01/12 11:38:48;;;;;;;2.92;1.55;;;14.10;62.10;;;;;;5030174;28;20929;-74
2022/01/12 11:41:17;;;;;;;5.07;1.50;;;14.20;62.10;;;;;;5030026;28;20402;-74
2022/01/12 11:43:45;;;;;;;3.28;1.38;;;15.10;54.10;;;;;;5028373;28;20045;-73
2022/01/12 11:46:13;;;;;;;5.72;1.67;;;15.20;62.70;;;;;;5029659;28;20129;-75
2022/01/12 11:48:44;;;;;;;3.00;1.83;;;16.00;62.90;;;;;;5028161;28;20053;-74
2022/01/12 11:51:11;;;;;;;3.10;1.27;;;15.10;62.40;;;;;;5025654;28;20128;-74
2022/01/12 11:53:48;;;;;;;2.70;1.45;;;15.20;62.50;;;;;;5026133;28;20132;-74
2022/01/12 11:56:17;;;;;;;2.88;1.50;;;14.40;53.90;;;;;;5027295;28;20076;-74
2022/01/12 11:58:54;;;;;;;3.53;1.60;;;15.00;62.40;;;;;;5028935;28;20049;-74
2022/01/12 12:01:22;;;;;;;1.55;1.30;;;15.90;63.00;;;;;;5029374;28;20132;-75
2022/01/12 12:04:01;;;;;;;1.80;1.30;;;14.20;61.70;;;;;;5030110;28;20406;-74
2022/01/12 12:06:28;;;;;;;2.83;1.33;;;15.10;62.60;;;;;;5029532;28;20133;-75
2022/01/12 12:08:59;;;;;;;2.65;1.35;;;14.70;55.10;;;;;;5030148;28;20049;-74
2022/01/12 12:11:28;;;;;;;3.50;1.40;;;15.00;62.60;;;;;;5029156;28;20133;-74
2022/01/12 12:13:59;;;;;;;5.40;2.00;;;15.20;62.60;;;;;;5028308;28;20695;-74
2022/01/12 12:16:26;;;;;;;5.82;1.70;;;15.20;62.70;;;;;;5028095;28;20132;-74
2022/01/12 12:18:53;;;;;;;1.92;1.33;;;15.10;62.40;;;;;;5028678;28;20051;-74
2022/01/12 12:21:21;;;;;;;6.82;1.70;;;15.10;54.00;;;;;;5029456;28;20053;-74
2022/01/12 12:23:48;;;;;;;2.20;1.50;;;14.70;62.10;;;;;;5029336;28;20057;-74
2022/01/12 12:26:15;;;;;;;2.80;1.30;;;15.10;62.30;;;;;;5029433;28;20613;-72
2022/01/12 12:28:44;;;;;;;1.77;1.10;;;15.20;57.10;;;;;;5029535;28;20056;-72
2022/01/12 12:31:11;;;;;;;3.03;1.50;;;14.40;62.20;;;;;;5030362;28;20537;-73
2022/01/12 12:33:38;;;;;;;1.73;1.30;;;15.20;57.30;;;;;;5029236;28;20049;-72
2022/01/12 12:36:06;;;;;;;2.13;1.20;;;;;;;;;;5028986;28;20064;-71
2022/01/12 12:38:34;;;;;;;2.85;1.40;;;15.10;62.60;;;;;;5029569;28;20061;-73
2022/01/12 12:41:01;;;;;;;2.90;1.48;;;14.30;62.00;;;;;;5028878;28;20133;-72
2022/01/12 12:43:34;;;;;;;2.35;1.30;;;;;;;;;;5029441;28;20320;-70
2022/01/12 12:46:01;;;;;;;4.00;1.40;;;15.00;62.40;;;;;;5028463;28;20132;-72
2022/01/12 12:48:29;;;;;;;2.28;1.38;;;15.00;62.40;;;;;;5030800;28;20418;-72
2022/01/12 12:50:59;;;;;;;4.65;1.40;;;15.10;58.50;;;;;;5030092;28;20406;-74
2022/01/12 12:53:27;;;;;;;7.47;1.67;;;14.50;62.50;;;;;;5027200;28;20136;-71
2022/01/12 12:55:55;;;;;;;2.65;1.45;;;14.90;54.30;;;;;;5029539;28;20566;-74
2022/01/12 12:58:25;;;;;;;2.38;1.20;;;14.90;54.30;;;;;;5029717;28;20153;-74
2022/01/12 13:00:51;;;;;;;3.17;1.40;;;14.90;62.90;;;;;;5029227;28;20129;-76
2022/01/12 13:03:19;;;;;;;2.75;1.50;;;;;;;;;;5029381;28;20057;-74
2022/01/12 13:05:45;;;;;;;3.38;1.17;;;14.70;62.60;;;;;;5029898;28;20132;-75
2022/01/12 13:08:12;;;;;;;2.80;1.25;;;14.80;54.30;;;;;;5032292;28;20405;-74
2022/01/12 13:10:39;;;;;;;2.10;1.40;;;14.80;62.60;;;;;;5032292;28;20119;-75
2022/01/12 13:13:09;;;;;;;3.28;1.50;;;14.70;62.80;;;;;;5031992;28;20073;-75
2022/01/12 13:15:36;;;;;;;2.35;1.40;;;14.70;54.30;;;;;;5032618;28;20128;-75
2022/01/12 13:18:04;;;;;;;2.63;1.40;;;14.70;62.80;;;;;;5032240;28;20494;-75
2022/01/12 13:23:17;;;;;;;2.95;1.27;;;;;;;;;;5057205;28;20053;-74
2022/01/12 13:25:44;;;;;;;2.47;1.30;;;14.60;62.70;;;;;;5029023;28;20058;-75
2022/01/12 13:28:12;;;;;;;2.88;1.40;;;14.60;54.40;;;;;;5028624;28;20136;-73
2022/01/12 13:30:48;;;;;;;2.45;1.30;;;14.60;54.40;;;;;;5028352;28;20144;-73
2022/01/12 13:33:15;;;;;;;2.50;1.30;;;14.00;60.00;;;;;;5030220;28;20063;-74
2022/01/12 13:35:42;;;;;;;2.33;1.25;;;14.60;63.00;;;;;;5028713;28;20144;-74
2022/01/12 13:38:10;;;;;;;2.47;1.10;;;;;;;;;;5032578;28;20049;-72
2022/01/12 13:40:37;;;;;;;3.03;1.50;;;14.50;54.40;;;;;;5031103;28;20060;-71
2022/01/12 13:43:05;;;;;;;4.05;1.73;;;14.50;62.70;;;;;;5030172;28;20053;-74
2022/01/12 13:45:38;;;;;;;2.75;1.27;;;14.40;60.60;;;;;;5030199;28;20471;-73
2022/01/12 13:48:12;;;;;;;2.50;1.40;;;14.30;54.40;;;;;;5032079;28;20449;-74
2022/01/12 13:50:39;;;;;;;1.40;1.15;;;14.40;54.50;;;;;;5030326;28;20057;-74
2022/01/12 13:53:06;;;;;;;2.38;1.40;;;14.30;63.00;;;;;;5031368;28;20551;-74
2022/01/12 13:55:33;;;;;;;4.18;1.50;;;14.40;63.20;;;;;;5031369;28;20055;-74
2022/01/12 13:58:04;;;;;;;2.53;1.58;;;14.50;63.00;;;;;;5031841;28;20046;-74
2022/01/12 14:00:33;;;;;;;2.67;1.50;;;14.40;63.00;;;;;;5031724;28;20045;-74
2022/01/12 14:03:00;;;;;;;2.50;1.70;;;;;;;;;;5031577;28;20136;-74
2022/01/12 14:05:36;;;;;;;3.65;1.90;;;14.40;63.30;;;;;;5031650;28;20080;-74
2022/01/12 14:08:10;;;;;;;2.47;1.38;;;14.10;63.00;;;;;;5030898;28;20391;-74